Time;durP1;ratioP1;P1;durP2;ratioP2;P2;SDS_P1;SDS_P2;PMS_P1;PMS_P2;Temp;Humidity;BMP_temperature;BMP_pressure;BME280_temperature;BME280_humidity;BME280_pressure;Samples;Min_cycle;Max_cycle;Signal;HPM_P1;HPM_P2
2022/07/02 00:01:52;;;;;;;;;;;;;;;;;;4914426;28;20596;-63
2022/07/02 00:04:17;;;;;;;;;;;;;;;;;;4917488;28;22106;-63
2022/07/02 00:06:43;;;;;;;;;;;;;;;;;;4883354;29;20780;-62
2022/07/02 00:09:11;;;;;;;;;;;;;;;;;;4914778;28;19938;-62
2022/07/02 00:11:41;;;;;;;;;;;;;;;;;;4885465;29;19998;-63
2022/07/02 00:14:09;;;;;;;;;;;;;;;;;;4883780;29;20033;-62
2022/07/02 00:16:34;;;;;;;;;;;;;;;;;;4914485;28;19970;-64
2022/07/02 00:19:02;;;;;;;;;;;;;;;;;;4914794;28;19925;-64
2022/07/02 00:21:29;;;;;;;;;;;;;;;;;;4914761;28;21845;-62
2022/07/02 00:23:57;;;;;;;;;;;;;;;;;;4887783;29;20015;-61
2022/07/02 00:26:22;;;;;;;;;;;;;;;;;;4883891;29;19934;-63
2022/07/02 00:28:48;;;;;;;;;;;;;;;;;;4885444;29;20387;-62
2022/07/02 00:31:13;;;;;;;;;;;;;;;;;;4880261;29;20272;-62
2022/07/02 00:33:44;;;;;;;;;;;;;;;;;;4913710;28;19934;-63
2022/07/02 00:36:21;;;;;;;;;;;;;;;;;;4882053;29;20418;-63
2022/07/02 00:38:46;;;;;;;;;;;;;;;;;;4915110;28;20380;-62
2022/07/02 00:41:14;;;;;;;;;;;;;;;;;;4887616;29;19919;-62
2022/07/02 00:43:42;;;;;;;;;;;;;;;;;;4883350;29;20375;-62
2022/07/02 00:46:08;;;;;;;;;;;;;;;;;;4915198;28;19971;-62
2022/07/02 00:48:33;;;;;;;;;;;;;;;;;;4910869;28;20420;-62
2022/07/02 00:50:59;;;;;;;;;;;;;;;;;;4878527;29;20451;-62
2022/07/02 00:53:24;;;;;;;;;;;;;;;;;;4914952;28;19927;-61
2022/07/02 00:55:52;;;;;;;;;;;;;;;;;;4882170;29;19923;-62
2022/07/02 00:58:17;;;;;;;;;;;;;;;;;;4898287;29;20331;-62
2022/07/02 01:00:42;;;;;;;;;;;;;;;;;;4889643;29;19926;-62
2022/07/02 01:03:08;;;;;;;;;;;;;;;;;;4916722;28;19930;-62
2022/07/02 01:05:33;;;;;;;;;;;;;;;;;;4883844;29;20280;-62
2022/07/02 01:10:45;;;;;;;;;;;;;;;;;;4885754;29;20050;-63
2022/07/02 01:13:10;;;;;;;;;;;;;;;;;;4887576;29;20012;-62
2022/07/02 01:15:36;;;;;;;;;;;;;;;;;;4903674;29;19919;-62
2022/07/02 01:18:06;;;;;;;;;;;;;;;;;;4881958;29;20021;-63
2022/07/02 01:20:33;;;;;;;;;;;;;;;;;;4875150;29;19923;-62
2022/07/02 01:25:52;;;;;;;;;;;;;;;;;;4882655;29;20027;-61
2022/07/02 01:28:20;;;;;;;;;;;;;;;;;;4886354;29;19995;-62
2022/07/02 01:30:51;;;;;;;;;;;;;;;;;;4888566;29;19979;-62
2022/07/02 01:33:16;;;;;;;;;;;;;;;;;;4911522;28;19919;-64
2022/07/02 01:35:42;;;;;;;;;;;;;;;;;;4915318;28;20926;-63
2022/07/02 01:38:08;;;;;;;;;;;;;;;;;;4880851;29;19923;-62
2022/07/02 01:40:34;;;;;;;;;;;;;;;;;;4886303;29;20299;-62
2022/07/02 01:43:01;;;;;;;;;;;;;;;;;;4896917;29;19966;-62
2022/07/02 01:45:31;;;;;;;;;;;;;;;;;;4919078;28;19923;-62
2022/07/02 01:47:57;;;;;;;;;;;;;;;;;;4884951;29;20515;-62
2022/07/02 01:50:22;;;;;;;;;;;;;;;;;;4884549;29;19926;-62
2022/07/02 01:52:51;;;;;;;;;;;;;;;;;;4913477;28;19934;-62
2022/07/02 01:55:18;;;;;;;;;;;;;;;;;;4884702;29;19931;-61
2022/07/02 01:57:43;;;;;;;;;;;;;;;;;;4900376;29;20036;-62
2022/07/02 02:00:09;;;;;;;;;;;;;;;;;;4885769;29;19974;-62
2022/07/02 02:02:34;;;;;;;;;;;;;;;;;;4901837;29;20332;-62
2022/07/02 02:05:02;;;;;;;;;;;;;;;;;;4883877;29;20678;-62
2022/07/02 02:07:31;;;;;;;;;;;;;;;;;;4888614;29;19923;-62
2022/07/02 02:09:59;;;;;;;;;;;;;;;;;;4914598;28;19919;-61
2022/07/02 02:12:24;;;;;;;;;;;;;;;;;;4908942;28;20472;-61
2022/07/02 02:14:50;;;;;;;;;;;;;;;;;;4887479;29;19927;-63
2022/07/02 02:17:16;;;;;;;;;;;;;;;;;;4884701;29;19927;-62
2022/07/02 02:19:41;;;;;;;;;;;;;;;;;;4909945;28;19919;-64
2022/07/02 02:22:07;;;;;;;;;;;;;;;;;;4915983;28;19958;-63
2022/07/02 02:24:32;;;;;;;;;;;;;;;;;;4883770;29;19927;-63
2022/07/02 02:27:03;;;;;;;;;;;;;;;;;;4884027;29;19950;-63
2022/07/02 02:29:28;;;;;;;;;;;;;;;;;;4913519;28;19923;-61
2022/07/02 02:31:56;;;;;;;;;;;;;;;;;;4889758;29;20006;-63
2022/07/02 02:34:23;;;;;;;;;;;;;;;;;;4885186;29;19919;-63
2022/07/02 02:36:48;;;;;;;;;;;;;;;;;;4884999;29;19919;-62
2022/07/02 02:39:14;;;;;;;;;;;;;;;;;;4885296;29;19959;-62
2022/07/02 02:41:39;;;;;;;;;;;;;;;;;;4881476;29;20985;-63
2022/07/02 02:44:07;;;;;;;;;;;;;;;;;;4881872;28;20216;-62
2022/07/02 02:46:34;;;;;;;;;;;;;;;;;;4915115;28;20173;-63
2022/07/02 02:49:02;;;;;;;;;;;;;;;;;;4887163;29;19919;-63
2022/07/02 02:51:27;;;;;;;;;;;;;;;;;;4893988;29;19970;-63
2022/07/02 02:53:53;;;;;;;;;;;;;;;;;;4913068;28;19931;-62
2022/07/02 02:56:18;;;;;;;;;;;;;;;;;;4907623;29;19923;-62
2022/07/02 02:58:46;;;;;;;;;;;;;;;;;;4892125;29;19923;-62
2022/07/02 03:01:14;;;;;;;;;;;;;;;;;;4886304;29;19919;-63
2022/07/02 03:03:42;;;;;;;;;;;;;;;;;;4919765;28;19923;-62
2022/07/02 03:06:07;;;;;;;;;;;;;;;;;;4886620;29;20383;-62
2022/07/02 03:08:35;;;;;;;;;;;;;;;;;;4917076;28;19923;-63
2022/07/02 03:11:00;;;;;;;;;;;;;;;;;;4886805;29;19923;-62
2022/07/02 03:13:26;;;;;;;;;;;;;;;;;;4917056;28;19974;-62
2022/07/02 03:15:52;;;;;;;;;;;;;;;;;;4884384;29;20354;-62
2022/07/02 03:18:17;;;;;;;;;;;;;;;;;;4916164;28;19919;-62
2022/07/02 03:20:43;;;;;;;;;;;;;;;;;;4887464;29;19923;-62
2022/07/02 03:23:08;;;;;;;;;;;;;;;;;;4886851;29;20745;-62
2022/07/02 03:25:33;;;;;;;;;;;;;;;;;;4901630;29;19974;-62
2022/07/02 03:28:04;;;;;;;;;;;;;;;;;;4885256;29;21107;-62
2022/07/02 03:30:29;;;;;;;;;;;;;;;;;;4901978;29;20523;-62
2022/07/02 03:32:59;;;;;;;;;;;;;;;;;;4884250;29;19927;-62
2022/07/02 03:35:25;;;;;;;;;;;;;;;;;;4885552;29;21944;-61
2022/07/02 03:37:53;;;;;;;;;;;;;;;;;;4886009;29;19924;-62
2022/07/02 03:40:21;;;;;;;;;;;;;;;;;;4899605;29;19923;-61
2022/07/02 03:42:46;;;;;;;;;;;;;;;;;;4885155;29;20430;-62
2022/07/02 03:45:12;;;;;;;;;;;;;;;;;;4888937;29;20022;-62
2022/07/02 03:47:40;;;;;;;;;;;;;;;;;;4884546;29;21686;-62
2022/07/02 03:50:06;;;;;;;;;;;;;;;;;;4885512;29;19934;-61
2022/07/02 03:52:34;;;;;;;;;;;;;;;;;;4889064;29;19959;-61
2022/07/02 03:55:03;;;;;;;;;;;;;;;;;;4887849;29;20021;-62
2022/07/02 03:57:29;;;;;;;;;;;;;;;;;;4886389;29;19923;-61
2022/07/02 03:59:54;;;;;;;;;;;;;;;;;;4883728;29;19924;-61
2022/07/02 04:02:22;;;;;;;;;;;;;;;;;;4894903;29;19923;-62
2022/07/02 04:04:53;;;;;;;;;;;;;;;;;;4883482;29;19923;-62
2022/07/02 04:07:18;;;;;;;;;;;;;;;;;;4902742;29;19926;-62
2022/07/02 04:09:44;;;;;;;;;;;;;;;;;;4902093;29;19923;-62
2022/07/02 04:12:12;;;;;;;;;;;;;;;;;;4885847;29;19927;-61
2022/07/02 04:14:40;;;;;;;;;;;;;;;;;;4886804;29;19930;-61
2022/07/02 04:17:08;;;;;;;;;;;;;;;;;;4889127;29;19919;-62
2022/07/02 04:19:33;;;;;;;;;;;;;;;;;;4880121;29;19941;-60
2022/07/02 04:22:03;;;;;;;;;;;;;;;;;;4887996;29;20031;-62
2022/07/02 04:24:29;;;;;;;;;;;;;;;;;;4919201;28;19919;-62
2022/07/02 04:26:57;;;;;;;;;;;;;;;;;;4893719;29;19950;-62
2022/07/02 04:29:22;;;;;;;;;;;;;;;;;;4885090;29;20475;-63
2022/07/02 04:31:47;;;;;;;;;;;;;;;;;;4898523;29;19931;-63
2022/07/02 04:34:13;;;;;;;;;;;;;;;;;;4886566;29;19930;-64
2022/07/02 04:36:39;;;;;;;;;;;;;;;;;;4897048;29;20049;-63
2022/07/02 04:39:04;;;;;;;;;;;;;;;;;;4891266;29;19927;-61
2022/07/02 04:41:29;;;;;;;;;;;;;;;;;;4885301;29;20620;-61
2022/07/02 04:43:55;;;;;;;;;;;;;;;;;;4914858;28;20508;-61
2022/07/02 04:46:20;;;;;;;;;;;;;;;;;;4916204;28;20013;-61
2022/07/02 04:48:45;;;;;;;;;;;;;;;;;;4887385;29;20591;-63
2022/07/02 04:51:14;;;;;;;;;;;;;;;;;;4875157;29;20609;-62
2022/07/02 04:53:39;;;;;;;;;;;;;;;;;;4886340;29;19923;-61
2022/07/02 04:56:04;;;;;;;;;;;;;;;;;;4882516;29;20727;-61
2022/07/02 04:58:30;;;;;;;;;;;;;;;;;;4875375;29;19935;-61
2022/07/02 05:00:56;;;;;;;;;;;;;;;;;;4898633;29;19991;-62
2022/07/02 05:03:21;;;;;;;;;;;;;;;;;;4887486;29;19962;-62
2022/07/02 05:05:46;;;;;;;;;;;;;;;;;;4888097;29;19935;-62
2022/07/02 05:08:12;;;;;;;;;;;;;;;;;;4906652;29;20411;-61
2022/07/02 05:10:37;;;;;;;;;;;;;;;;;;4921134;28;19923;-62
2022/07/02 05:13:08;;;;;;;;;;;;;;;;;;4886322;29;20600;-60
2022/07/02 05:15:33;;;;;;;;;;;;;;;;;;4902859;29;19958;-63
2022/07/02 05:18:01;;;;;;;;;;;;;;;;;;4885875;29;20017;-62
2022/07/02 05:20:28;;;;;;;;;;;;;;;;;;4902709;29;20458;-62
2022/07/02 05:22:56;;;;;;;;;;;;;;;;;;4921023;28;20249;-62
2022/07/02 05:25:21;;;;;;;;;;;;;;;;;;4889870;29;19987;-63
2022/07/02 05:27:46;;;;;;;;;;;;;;;;;;4891169;29;20017;-62
2022/07/02 05:30:16;;;;;;;;;;;;;;;;;;4891026;29;19927;-63
2022/07/02 05:32:41;;;;;;;;;;;;;;;;;;4920645;28;19927;-62
2022/07/02 05:35:06;;;;;;;;;;;;;;;;;;4914189;28;20082;-62
2022/07/02 05:37:32;;;;;;;;;;;;;;;;;;4917423;28;19995;-63
2022/07/02 05:39:58;;;;;;;;;;;;;;;;;;4917113;28;20050;-62
2022/07/02 05:42:23;;;;;;;;;;;;;;;;;;4919190;28;19994;-63
2022/07/02 05:44:49;;;;;;;;;;;;;;;;;;4888708;29;21003;-62
2022/07/02 05:47:15;;;;;;;;;;;;;;;;;;4884591;29;19923;-63
2022/07/02 05:49:41;;;;;;;;;;;;;;;;;;4879177;29;19937;-63
2022/07/02 05:52:07;;;;;;;;;;;;;;;;;;4899047;29;20001;-64
2022/07/02 05:54:32;;;;;;;;;;;;;;;;;;4915872;28;19923;-64
2022/07/02 05:56:58;;;;;;;;;;;;;;;;;;4886669;29;19929;-64
2022/07/02 05:59:23;;;;;;;;;;;;;;;;;;4890167;29;19922;-63
2022/07/02 06:01:49;;;;;;;;;;;;;;;;;;4915224;28;19919;-62
2022/07/02 06:04:17;;;;;;;;;;;;;;;;;;4910018;28;19927;-63
2022/07/02 06:09:29;;;;;;;;;;;;;;;;;;4882037;29;19924;-63
2022/07/02 06:11:54;;;;;;;;;;;;;;;;;;4914878;28;20014;-63
2022/07/02 06:14:26;;;;;;;;;;;;;;;;;;4902991;29;19919;-64
2022/07/02 06:16:51;;;;;;;;;;;;;;;;;;4892396;29;19923;-64
2022/07/02 06:19:17;;;;;;;;;;;;;;;;;;4885738;29;19926;-65
2022/07/02 06:21:43;;;;;;;;;;;;;;;;;;4900742;29;19927;-65
2022/07/02 06:24:08;;;;;;;;;;;;;;;;;;4915179;28;19919;-64
2022/07/02 06:26:36;;;;;;;;;;;;;;;;;;4906856;28;20998;-64
2022/07/02 06:29:01;;;;;;;;;;;;;;;;;;4883789;29;19926;-64
2022/07/02 06:31:26;;;;;;;;;;;;;;;;;;4911409;28;20024;-63
2022/07/02 06:33:52;;;;;;;;;;;;;;;;;;4879774;29;19923;-64
2022/07/02 06:36:21;;;;;;;;;;;;;;;;;;4913588;28;20078;-64
2022/07/02 06:38:46;;;;;;;;;;;;;;;;;;4883937;29;19930;-66
2022/07/02 06:43:56;;;;;;;;;;;;;;;;;;4887820;29;19938;-65
2022/07/02 06:46:22;;;;;;;;;;;;;;;;;;4888600;29;19927;-63
2022/07/02 06:48:47;;;;;;;;;;;;;;;;;;4925327;28;20672;-64
2022/07/02 06:51:15;;;;;;;;;;;;;;;;;;4887869;29;20005;-63
2022/07/02 06:53:41;;;;;;;;;;;;;;;;;;4886134;29;19985;-64
2022/07/02 06:56:06;;;;;;;;;;;;;;;;;;4884070;29;20316;-64
2022/07/02 06:58:34;;;;;;;;;;;;;;;;;;4895286;29;19927;-64
2022/07/02 07:01:00;;;;;;;;;;;;;;;;;;4918656;28;19925;-63
2022/07/02 07:03:25;;;;;;;;;;;;;;;;;;4898494;29;19922;-66
2022/07/02 07:05:52;;;;;;;;;;;;;;;;;;4878967;29;19923;-63
2022/07/02 07:08:17;;;;;;;;;;;;;;;;;;4884566;29;19930;-64
2022/07/02 07:10:45;;;;;;;;;;;;;;;;;;4882236;29;20022;-65
2022/07/02 07:13:10;;;;;;;;;;;;;;;;;;4882703;29;19923;-65
2022/07/02 07:15:35;;;;;;;;;;;;;;;;;;4919356;28;19927;-63
2022/07/02 07:18:03;;;;;;;;;;;;;;;;;;4887463;29;19939;-65
2022/07/02 07:20:29;;;;;;;;;;;;;;;;;;4900691;29;19934;-65
2022/07/02 07:22:54;;;;;;;;;;;;;;;;;;4883557;29;19927;-65
2022/07/02 07:25:22;;;;;;;;;;;;;;;;;;4888099;29;19927;-64
2022/07/02 07:27:48;;;;;;;;;;;;;;;;;;4898818;29;20010;-64
2022/07/02 07:30:15;;;;;;;;;;;;;;;;;;4885030;29;19919;-62
2022/07/02 07:32:41;;;;;;;;;;;;;;;;;;4887058;29;20379;-64
2022/07/02 07:35:09;;;;;;;;;;;;;;;;;;4879472;29;19962;-65
2022/07/02 07:37:38;;;;;;;;;;;;;;;;;;4877857;29;19967;-65
2022/07/02 07:40:03;;;;;;;;;;;;;;;;;;4913216;28;20892;-65
2022/07/02 07:42:29;;;;;;;;;;;;;;;;;;4877208;29;19954;-65
2022/07/02 07:44:57;;;;;;;;;;;;;;;;;;4885510;29;19927;-62
2022/07/02 07:47:24;;;;;;;;;;;;;;;;;;4885471;29;19923;-64
2022/07/02 07:49:50;;;;;;;;;;;;;;;;;;4880159;29;20025;-64
2022/07/02 07:52:18;;;;;;;;;;;;;;;;;;4881930;29;19923;-63
2022/07/02 07:54:44;;;;;;;;;;;;;;;;;;4909821;28;20054;-66
2022/07/02 07:57:09;;;;;;;;;;;;;;;;;;4895988;29;19927;-64
2022/07/02 07:59:39;;;;;;;;;;;;;;;;;;4881005;29;19931;-65
2022/07/02 08:02:04;;;;;;;;;;;;;;;;;;4885753;29;19986;-63
2022/07/02 08:04:33;;;;;;;;;;;;;;;;;;4882648;29;20799;-65
2022/07/02 08:06:59;;;;;;;;;;;;;;;;;;4888804;29;19919;-65
2022/07/02 08:09:25;;;;;;;;;;;;;;;;;;4901534;29;19971;-63
2022/07/02 08:11:52;;;;;;;;;;;;;;;;;;4916625;28;20890;-65
2022/07/02 08:14:18;;;;;;;;;;;;;;;;;;4900605;29;20478;-63
2022/07/02 08:16:44;;;;;;;;;;;;;;;;;;4893949;29;19923;-65
2022/07/02 08:19:09;;;;;;;;;;;;;;;;;;4888488;29;20022;-62
2022/07/02 08:21:34;;;;;;;;;;;;;;;;;;4881241;29;19942;-63
2022/07/02 08:24:00;;;;;;;;;;;;;;;;;;4898828;29;19919;-64
2022/07/02 08:26:25;;;;;;;;;;;;;;;;;;4913961;28;19971;-63
2022/07/02 08:28:51;;;;;;;;;;;;;;;;;;4889108;29;19962;-63
2022/07/02 08:31:16;;;;;;;;;;;;;;;;;;4890909;29;20046;-63
2022/07/02 08:33:44;;;;;;;;;;;;;;;;;;4884461;29;20022;-64
2022/07/02 08:36:10;;;;;;;;;;;;;;;;;;4916720;28;19923;-63
2022/07/02 08:38:37;;;;;;;;;;;;;;;;;;4912386;28;19938;-60
2022/07/02 08:41:05;;;;;;;;;;;;;;;;;;4887602;29;20034;-63
2022/07/02 08:43:30;;;;;;;;;;;;;;;;;;4885643;29;19934;-64
2022/07/02 08:45:56;;;;;;;;;;;;;;;;;;4895136;29;20387;-62
2022/07/02 08:48:24;;;;;;;;;;;;;;;;;;4922271;28;19966;-64
2022/07/02 08:50:49;;;;;;;;;;;;;;;;;;4916180;28;20475;-63
2022/07/02 08:53:14;;;;;;;;;;;;;;;;;;4889027;29;20737;-63
2022/07/02 08:55:41;;;;;;;;;;;;;;;;;;4920974;28;19919;-62
2022/07/02 08:58:06;;;;;;;;;;;;;;;;;;4888583;29;19923;-64
2022/07/02 09:00:32;;;;;;;;;;;;;;;;;;4924324;28;19931;-64
2022/07/02 09:03:00;;;;;;;;;;;;;;;;;;4921760;28;20493;-64
2022/07/02 09:05:25;;;;;;;;;;;;;;;;;;4893077;29;20014;-63
2022/07/02 09:07:51;;;;;;;;;;;;;;;;;;4923647;28;20129;-62
2022/07/02 09:10:17;;;;;;;;;;;;;;;;;;4920193;28;19919;-63
2022/07/02 09:12:42;;;;;;;;;;;;;;;;;;4892391;29;19934;-62
2022/07/02 09:15:10;;;;;;;;;;;;;;;;;;4924501;28;20369;-64
2022/07/02 09:17:35;;;;;;;;;;;;;;;;;;4922927;28;19930;-64
2022/07/02 09:20:03;;;;;;;;;;;;;;;;;;4919881;28;20990;-63
2022/07/02 09:22:28;;;;;;;;;;;;;;;;;;4890907;29;19970;-66
2022/07/02 09:24:54;;;;;;;;;;;;;;;;;;4892614;29;19923;-67
2022/07/02 09:27:20;;;;;;;;;;;;;;;;;;4901408;29;19926;-64
2022/07/02 09:29:45;;;;;;;;;;;;;;;;;;4914929;28;19923;-65
2022/07/02 09:32:11;;;;;;;;;;;;;;;;;;4883946;29;19969;-62
2022/07/02 09:34:41;;;;;;;;;;;;;;;;;;4885738;29;20063;-64
2022/07/02 09:37:09;;;;;;;;;;;;;;;;;;4914466;28;19959;-64
2022/07/02 09:39:35;;;;;;;;;;;;;;;;;;4888414;29;19919;-64
2022/07/02 09:42:00;;;;;;;;;;;;;;;;;;4887281;29;20193;-63
2022/07/02 09:44:26;;;;;;;;;;;;;;;;;;4885144;29;19927;-65
2022/07/02 09:46:52;;;;;;;;;;;;;;;;;;4922473;28;20794;-63
2022/07/02 09:49:18;;;;;;;;;;;;;;;;;;4884568;29;20535;-66
2022/07/02 09:51:44;;;;;;;;;;;;;;;;;;4898618;29;19927;-66
2022/07/02 09:54:09;;;;;;;;;;;;;;;;;;4916098;28;19918;-68
2022/07/02 09:56:37;;;;;;;;;;;;;;;;;;4890980;29;19919;-64
2022/07/02 09:59:04;;;;;;;;;;;;;;;;;;4886107;29;19938;-66
2022/07/02 10:01:30;;;;;;;;;;;;;;;;;;4884407;29;20048;-66
2022/07/02 10:03:56;;;;;;;;;;;;;;;;;;4884277;29;20090;-61
2022/07/02 10:06:21;;;;;;;;;;;;;;;;;;4880984;29;19926;-63
2022/07/02 10:08:49;;;;;;;;;;;;;;;;;;4884205;29;19919;-63
2022/07/02 10:11:14;;;;;;;;;;;;;;;;;;4885057;29;19930;-65
2022/07/02 10:13:43;;;;;;;;;;;;;;;;;;4911907;28;19919;-63
2022/07/02 10:16:09;;;;;;;;;;;;;;;;;;4912764;28;19934;-65
2022/07/02 10:18:34;;;;;;;;;;;;;;;;;;4913160;28;21016;-61
2022/07/02 10:21:03;;;;;;;;;;;;;;;;;;4886503;29;19939;-64
2022/07/02 10:23:28;;;;;;;;;;;;;;;;;;4884735;29;19923;-66
2022/07/02 10:25:54;;;;;;;;;;;;;;;;;;4919317;28;19934;-62
2022/07/02 10:28:21;;;;;;;;;;;;;;;;;;4920522;28;20033;-65
2022/07/02 10:30:47;;;;;;;;;;;;;;;;;;4918015;28;19955;-63
2022/07/02 10:33:12;;;;;;;;;;;;;;;;;;4883686;29;20054;-63
2022/07/02 10:35:37;;;;;;;;;;;;;;;;;;4885726;29;19927;-64
2022/07/02 10:38:02;;;;;;;;;;;;;;;;;;4896847;29;20790;-65
2022/07/02 10:40:28;;;;;;;;;;;;;;;;;;4915170;28;20026;-64
2022/07/02 10:42:57;;;;;;;;;;;;;;;;;;4888522;29;19931;-62
2022/07/02 10:45:23;;;;;;;;;;;;;;;;;;4913687;28;19930;-64
2022/07/02 10:47:48;;;;;;;;;;;;;;;;;;4894519;29;19923;-63
2022/07/02 10:50:21;;;;;;;;;;;;;;;;;;4910803;28;19926;-64
2022/07/02 10:52:47;;;;;;;;;;;;;;;;;;4883684;29;19962;-64
2022/07/02 10:55:14;;;;;;;;;;;;;;;;;;4884402;29;19934;-64
2022/07/02 10:57:40;;;;;;;;;;;;;;;;;;4888997;29;19973;-64
2022/07/02 11:00:06;;;;;;;;;;;;;;;;;;4888127;29;20851;-65
2022/07/02 11:02:31;;;;;;;;;;;;;;;;;;4912776;28;19998;-65
2022/07/02 11:04:59;;;;;;;;;;;;;;;;;;4916509;28;20631;-62
2022/07/02 11:07:27;;;;;;;;;;;;;;;;;;4881240;29;19934;-63
2022/07/02 11:09:58;;;;;;;;;;;;;;;;;;4881867;29;19919;-63
2022/07/02 11:12:24;;;;;;;;;;;;;;;;;;4913389;28;19959;-63
2022/07/02 11:14:49;;;;;;;;;;;;;;;;;;4880748;29;19923;-63
2022/07/02 11:17:17;;;;;;;;;;;;;;;;;;4879101;29;19923;-62
2022/07/02 11:19:47;;;;;;;;;;;;;;;;;;4887721;29;19996;-63
2022/07/02 11:22:15;;;;;;;;;;;;;;;;;;4915190;28;20842;-63
2022/07/02 11:24:40;;;;;;;;;;;;;;;;;;4916328;28;19986;-65
2022/07/02 11:27:08;;;;;;;;;;;;;;;;;;4922440;28;20203;-66
2022/07/02 11:29:33;;;;;;;;;;;;;;;;;;4892960;29;20765;-67
2022/07/02 11:31:59;;;;;;;;;;;;;;;;;;4890553;29;19965;-62
2022/07/02 11:34:24;;;;;;;;;;;;;;;;;;4902737;29;19919;-63
2022/07/02 11:36:53;;;;;;;;;;;;;;;;;;4886545;29;19923;-67
2022/07/02 11:39:20;;;;;;;;;;;;;;;;;;4888471;29;19930;-66
2022/07/02 11:41:46;;;;;;;;;;;;;;;;;;4884984;29;19963;-63
2022/07/02 11:44:11;;;;;;;;;;;;;;;;;;4889213;29;20048;-64
2022/07/02 11:46:37;;;;;;;;;;;;;;;;;;4910529;28;20045;-66
2022/07/02 11:49:02;;;;;;;;;;;;;;;;;;4881266;29;19923;-65
2022/07/02 11:51:28;;;;;;;;;;;;;;;;;;4882554;29;19923;-64
2022/07/02 11:53:53;;;;;;;;;;;;;;;;;;4882289;29;20058;-65
2022/07/02 11:56:20;;;;;;;;;;;;;;;;;;4891135;29;19923;-66
2022/07/02 11:58:46;;;;;;;;;;;;;;;;;;4889586;29;19926;-68
2022/07/02 12:01:14;;;;;;;;;;;;;;;;;;4920670;28;19986;-67
2022/07/02 12:03:42;;;;;;;;;;;;;;;;;;4879343;29;20001;-66
2022/07/02 12:06:07;;;;;;;;;;;;;;;;;;4903519;29;20494;-66
2022/07/02 12:08:35;;;;;;;;;;;;;;;;;;4895999;29;19950;-65
2022/07/02 12:11:00;;;;;;;;;;;;;;;;;;4898060;29;20403;-64
2022/07/02 12:13:26;;;;;;;;;;;;;;;;;;4882706;29;20003;-62
2022/07/02 12:15:51;;;;;;;;;;;;;;;;;;4900935;29;20442;-61
2022/07/02 12:18:18;;;;;;;;;;;;;;;;;;4884169;29;19931;-63
2022/07/02 12:20:44;;;;;;;;;;;;;;;;;;4880900;29;19967;-65
2022/07/02 12:23:09;;;;;;;;;;;;;;;;;;4910774;28;19927;-62
2022/07/02 12:25:37;;;;;;;;;;;;;;;;;;4881454;29;19919;-64
2022/07/02 12:29:52;;;;;;;;;;;;;;;;;;4895578;29;19923;-63
2022/07/02 12:30:48;;;;;;;;;;;;;;;;;;4886928;28;19923;-62
2022/07/02 12:33:13;;;;;;;;;;;;;;;;;;4884262;29;20009;-63
2022/07/02 12:35:39;;;;;;;;;;;;;;;;;;4882995;29;19933;-66
2022/07/02 12:38:06;;;;;;;;;;;;;;;;;;4881412;29;20414;-60
2022/07/02 12:40:34;;;;;;;;;;;;;;;;;;4885365;29;19923;-63
2022/07/02 12:43:02;;;;;;;;;;;;;;;;;;4884013;29;19949;-64
2022/07/02 12:45:33;;;;;;;;;;;;;;;;;;4885439;29;20049;-64
2022/07/02 12:48:07;;;;;;;;;;;;;;;;;;4888439;29;22038;-71
2022/07/02 12:50:37;;;;;;;;;;;;;;;;;;4916503;28;19927;-63
2022/07/02 12:53:03;;;;;;;;;;;;;;;;;;4886571;28;19959;-62
2022/07/02 12:55:31;;;;;;;;;;;;;;;;;;4900571;29;19923;-69
2022/07/02 12:57:56;;;;;;;;;;;;;;;;;;4916946;28;20815;-63
2022/07/02 13:00:24;;;;;;;;;;;;;;;;;;4922427;28;20399;-66
2022/07/02 13:02:50;;;;;;;;;;;;;;;;;;4883323;29;19931;-68
2022/07/02 13:05:17;;;;;;;;;;;;;;;;;;4906766;28;20025;-67
2022/07/02 13:07:43;;;;;;;;;;;;;;;;;;4881302;29;19954;-68
2022/07/02 13:10:08;;;;;;;;;;;;;;;;;;4911375;28;19930;-68
2022/07/02 13:12:34;;;;;;;;;;;;;;;;;;4907608;28;20360;-67
2022/07/02 13:14:59;;;;;;;;;;;;;;;;;;4885241;29;20437;-65
2022/07/02 13:17:25;;;;;;;;;;;;;;;;;;4898759;29;19930;-64
2022/07/02 13:19:53;;;;;;;;;;;;;;;;;;4918499;28;21929;-67
2022/07/02 13:22:26;;;;;;;;;;;;;;;;;;4886481;29;20002;-67
2022/07/02 13:24:51;;;;;;;;;;;;;;;;;;4898119;29;20770;-69
2022/07/02 13:27:17;;;;;;;;;;;;;;;;;;4881183;29;20022;-68
2022/07/02 13:29:43;;;;;;;;;;;;;;;;;;4892611;29;19925;-69
2022/07/02 13:32:11;;;;;;;;;;;;;;;;;;4919457;28;20145;-68
2022/07/02 13:34:39;;;;;;;;;;;;;;;;;;4914175;28;20552;-66
2022/07/02 13:37:04;;;;;;;;;;;;;;;;;;4877619;29;20388;-67
2022/07/02 13:39:33;;;;;;;;;;;;;;;;;;4881940;29;19971;-68
2022/07/02 13:42:00;;;;;;;;;;;;;;;;;;4884635;29;19927;-68
2022/07/02 13:44:26;;;;;;;;;;;;;;;;;;4884448;29;19954;-68
2022/07/02 13:46:51;;;;;;;;;;;;;;;;;;4916415;28;19923;-68
2022/07/02 13:49:19;;;;;;;;;;;;;;;;;;4885714;29;19962;-64
2022/07/02 13:51:47;;;;;;;;;;;;;;;;;;4886743;29;20001;-69
2022/07/02 13:54:12;;;;;;;;;;;;;;;;;;4916891;28;20891;-70
2022/07/02 13:56:40;;;;;;;;;;;;;;;;;;4878932;29;20053;-71
2022/07/02 13:59:08;;;;;;;;;;;;;;;;;;4897585;29;19933;-67
2022/07/02 14:01:33;;;;;;;;;;;;;;;;;;4884739;29;19934;-68
2022/07/02 14:04:03;;;;;;;;;;;;;;;;;;4917224;28;19938;-69
2022/07/02 14:06:28;;;;;;;;;;;;;;;;;;4918283;28;19927;-70
2022/07/02 14:08:54;;;;;;;;;;;;;;;;;;4865492;29;20870;-69
2022/07/02 14:11:19;;;;;;;;;;;;;;;;;;4913011;28;19974;-70
2022/07/02 14:13:47;;;;;;;;;;;;;;;;;;4890995;29;20035;-70
2022/07/02 14:16:12;;;;;;;;;;;;;;;;;;4902602;29;19923;-68
2022/07/02 14:18:38;;;;;;;;;;;;;;;;;;4889989;29;19939;-71
2022/07/02 14:21:03;;;;;;;;;;;;;;;;;;4921548;28;19942;-68
2022/07/02 14:23:29;;;;;;;;;;;;;;;;;;4904072;29;19931;-70
2022/07/02 14:25:56;;;;;;;;;;;;;;;;;;4890552;29;20275;-65
2022/07/02 14:28:24;;;;;;;;;;;;;;;;;;4892989;29;20063;-69
2022/07/02 14:30:50;;;;;;;;;;;;;;;;;;4887986;29;20030;-70
2022/07/02 14:33:18;;;;;;;;;;;;;;;;;;4922924;28;19934;-69
2022/07/02 14:35:45;;;;;;;;;;;;;;;;;;4890932;29;20969;-69
2022/07/02 14:38:11;;;;;;;;;;;;;;;;;;4902453;29;19958;-70
2022/07/02 14:43:27;;;;;;;;;;;;;;;;;;4885283;29;20328;-71
2022/07/02 14:45:53;;;;;;;;;;;;;;;;;;4914857;28;20015;-69
2022/07/02 14:48:19;;;;;;;;;;;;;;;;;;4886571;29;19967;-71
2022/07/02 14:50:45;;;;;;;;;;;;;;;;;;4915858;28;19923;-70
2022/07/02 14:53:11;;;;;;;;;;;;;;;;;;4889540;29;20200;-67
2022/07/02 14:55:36;;;;;;;;;;;;;;;;;;4888636;29;20893;-68
2022/07/02 14:58:01;;;;;;;;;;;;;;;;;;4885102;29;22370;-69
2022/07/02 15:00:27;;;;;;;;;;;;;;;;;;4889820;29;19945;-72
2022/07/02 15:02:52;;;;;;;;;;;;;;;;;;4899831;29;20014;-71
2022/07/02 15:05:19;;;;;;;;;;;;;;;;;;4894999;29;19923;-69
2022/07/02 15:07:44;;;;;;;;;;;;;;;;;;4924377;28;19978;-69
2022/07/02 15:10:10;;;;;;;;;;;;;;;;;;4919122;28;20026;-66
2022/07/02 15:12:35;;;;;;;;;;;;;;;;;;4924491;28;20015;-69
2022/07/02 15:17:45;;;;;;;;;;;;;;;;;;4893806;29;19990;-71
2022/07/02 15:20:11;;;;;;;;;;;;;;;;;;4885868;29;19927;-67
2022/07/02 15:22:39;;;;;;;;;;;;;;;;;;4917449;28;19923;-69
2022/07/02 15:25:08;;;;;;;;;;;;;;;;;;4914238;28;19919;-68
2022/07/02 15:27:33;;;;;;;;;;;;;;;;;;4901546;29;19934;-70
2022/07/02 15:29:58;;;;;;;;;;;;;;;;;;4891003;29;19919;-69
2022/07/02 15:32:24;;;;;;;;;;;;;;;;;;4921270;28;19930;-68
2022/07/02 15:34:49;;;;;;;;;;;;;;;;;;4887737;29;19927;-70
2022/07/02 15:37:14;;;;;;;;;;;;;;;;;;4905771;29;19962;-71
2022/07/02 15:39:40;;;;;;;;;;;;;;;;;;4924195;28;19923;-69
2022/07/02 15:42:05;;;;;;;;;;;;;;;;;;4923693;28;19982;-68
2022/07/02 15:44:31;;;;;;;;;;;;;;;;;;4886222;29;20021;-67
2022/07/02 15:46:56;;;;;;;;;;;;;;;;;;4916679;28;20441;-70
2022/07/02 15:49:22;;;;;;;;;;;;;;;;;;4919227;28;20848;-70
2022/07/02 15:51:47;;;;;;;;;;;;;;;;;;4917705;28;19982;-69
2022/07/02 15:54:13;;;;;;;;;;;;;;;;;;4921007;28;19927;-70
2022/07/02 15:56:38;;;;;;;;;;;;;;;;;;4885318;29;19946;-69
2022/07/02 15:59:04;;;;;;;;;;;;;;;;;;4916922;28;19934;-72
2022/07/02 16:01:29;;;;;;;;;;;;;;;;;;4889555;29;19923;-70
2022/07/02 16:03:54;;;;;;;;;;;;;;;;;;4900388;29;19926;-71
2022/07/02 16:06:20;;;;;;;;;;;;;;;;;;4886374;29;20667;-67
2022/07/02 16:08:45;;;;;;;;;;;;;;;;;;4902526;29;19927;-69
2022/07/02 16:11:11;;;;;;;;;;;;;;;;;;4893379;29;19979;-70
2022/07/02 16:13:36;;;;;;;;;;;;;;;;;;4890487;29;19919;-72
2022/07/02 16:16:01;;;;;;;;;;;;;;;;;;4921364;28;20829;-73
2022/07/02 16:18:28;;;;;;;;;;;;;;;;;;4890186;29;19934;-70
2022/07/02 16:20:53;;;;;;;;;;;;;;;;;;4923155;28;19936;-71
2022/07/02 16:23:18;;;;;;;;;;;;;;;;;;4903092;29;19927;-72
2022/07/02 16:25:44;;;;;;;;;;;;;;;;;;4923863;28;20044;-72
2022/07/02 16:28:09;;;;;;;;;;;;;;;;;;4892787;29;20002;-73
2022/07/02 16:30:35;;;;;;;;;;;;;;;;;;4886853;29;19923;-71
2022/07/02 16:33:00;;;;;;;;;;;;;;;;;;4889054;29;19927;-71
2022/07/02 16:35:26;;;;;;;;;;;;;;;;;;4888667;29;19923;-71
2022/07/02 16:37:51;;;;;;;;;;;;;;;;;;4900876;29;19923;-72
2022/07/02 16:40:16;;;;;;;;;;;;;;;;;;4893234;29;20465;-70
2022/07/02 16:42:41;;;;;;;;;;;;;;;;;;4888498;29;20457;-71
2022/07/02 16:45:07;;;;;;;;;;;;;;;;;;4898096;29;20454;-71
2022/07/02 16:47:33;;;;;;;;;;;;;;;;;;4885380;29;21816;-71
2022/07/02 16:49:58;;;;;;;;;;;;;;;;;;4917587;28;20573;-71
2022/07/02 16:52:24;;;;;;;;;;;;;;;;;;4917289;28;19974;-71
2022/07/02 16:54:50;;;;;;;;;;;;;;;;;;4885981;29;19923;-70
2022/07/02 16:57:17;;;;;;;;;;;;;;;;;;4887351;29;20415;-71